Terminal Aerodrome Forecast
Issued by NWS

Home | Current Version | Previous Version | Text Only | Print | Product List | Glossary Off
Versions: 1 2 3 4 5 6 7 8 9 10 11 12 13 14 15 16

000
FTUS43 KICT 301500 AAA
TAFSLN
TAF AMD
KSLN 301515Z 3015/3112 07012KT P6SM VCSH SCT025 OVC045
      TEMPO 3015/3019 -SHRA
     FM301900 05007KT P6SM BKN050
     FM310200 VRB05KT P6SM BKN200=

USA.gov is the U.S. government's official web portal to all federal, state and local government web resources and services.